createdAt,value
2018-08-17T00:01:11.217Z,5.27
2018-08-17T00:03:39.847Z,4.63
2018-08-17T00:06:08.725Z,4.90
2018-08-17T00:08:37.335Z,5.03
2018-08-17T00:11:06.212Z,5.03
2018-08-17T00:13:34.745Z,4.50
2018-08-17T00:16:03.377Z,4.77
2018-08-17T00:18:31.969Z,4.30
2018-08-17T00:21:00.585Z,4.93
2018-08-17T00:23:29.187Z,7.60
2018-08-17T00:25:57.817Z,11.93
2018-08-17T00:28:26.446Z,16.40
2018-08-17T00:30:55.028Z,17.30
2018-08-17T00:33:23.602Z,9.13
2018-08-17T00:35:52.208Z,8.93
2018-08-17T00:38:20.811Z,8.63
2018-08-17T00:40:49.373Z,4.80
2018-08-17T00:43:17.951Z,4.73
2018-08-17T00:45:46.525Z,4.57
2018-08-17T00:48:15.146Z,5.30
2018-08-17T00:50:43.706Z,6.10
2018-08-17T00:53:12.279Z,6.90
2018-08-17T00:55:40.829Z,7.73
2018-08-17T00:58:09.506Z,8.53
2018-08-17T01:00:38.247Z,8.73
2018-08-17T01:03:07.144Z,9.43
2018-08-17T01:05:35.747Z,9.97
2018-08-17T01:08:04.369Z,11.90
2018-08-17T01:10:32.940Z,14.53
2018-08-17T01:13:01.546Z,15.50
2018-08-17T01:15:30.192Z,12.77
2018-08-17T01:17:58.844Z,16.07
2018-08-17T01:20:27.488Z,15.67
2018-08-17T01:22:56.080Z,15.90
2018-08-17T01:25:24.743Z,16.97
2018-08-17T01:27:53.409Z,17.93
2018-08-17T01:30:22.083Z,17.60
2018-08-17T01:32:50.704Z,19.80
2018-08-17T01:35:19.338Z,20.53
2018-08-17T01:37:47.965Z,27.70
2018-08-17T01:40:16.760Z,84.23
2018-08-17T01:42:45.728Z,130.23
2018-08-17T01:45:14.874Z,92.13
2018-08-17T01:47:43.615Z,63.63
2018-08-17T01:50:12.233Z,37.47
2018-08-17T01:52:40.868Z,33.20
2018-08-17T01:55:11.073Z,28.53
2018-08-17T01:57:39.767Z,25.67
2018-08-17T02:00:10.176Z,24.40
2018-08-17T02:02:40.630Z,23.67
2018-08-17T02:05:10.195Z,21.03
2018-08-17T02:07:38.809Z,17.80
2018-08-17T02:10:09.965Z,16.03
2018-08-17T02:12:39.062Z,15.70
2018-08-17T02:15:07.855Z,14.10
2018-08-17T02:17:36.662Z,14.63
2018-08-17T02:20:05.429Z,13.37
2018-08-17T02:22:34.113Z,13.20
2018-08-17T02:25:02.737Z,12.67
2018-08-17T02:27:31.352Z,13.57
2018-08-17T02:29:59.964Z,13.33
2018-08-17T02:32:28.579Z,17.27
2018-08-17T02:34:57.192Z,29.50
2018-08-17T02:37:25.817Z,29.40
2018-08-17T02:39:54.427Z,18.40
2018-08-17T02:42:23.114Z,17.97
2018-08-17T02:44:51.707Z,18.70
2018-08-17T02:47:20.493Z,19.03
2018-08-17T02:49:49.077Z,17.73
2018-08-17T02:52:17.796Z,18.17
2018-08-17T02:54:46.907Z,16.77
2018-08-17T02:57:15.515Z,17.43
2018-08-17T02:59:44.137Z,16.03
2018-08-17T03:02:12.729Z,16.80
2018-08-17T03:04:41.318Z,15.77
2018-08-17T03:07:09.940Z,15.73
2018-08-17T03:09:38.549Z,15.70
2018-08-17T03:12:07.187Z,15.87
2018-08-17T03:14:35.784Z,21.60
2018-08-17T03:17:04.444Z,22.03
2018-08-17T03:19:33.014Z,21.20
2018-08-17T03:22:01.625Z,17.53
2018-08-17T03:24:30.197Z,18.73
2018-08-17T03:26:58.816Z,16.47
2018-08-17T03:29:27.396Z,15.27
2018-08-17T03:31:56.005Z,15.20
2018-08-17T03:34:24.627Z,15.03
2018-08-17T03:36:53.229Z,15.03
2018-08-17T03:39:21.857Z,15.07
2018-08-17T03:41:50.484Z,15.60
2018-08-17T03:44:19.112Z,14.50
2018-08-17T03:46:47.720Z,15.07
2018-08-17T03:49:16.384Z,14.30
2018-08-17T03:51:44.964Z,15.07
2018-08-17T03:54:13.585Z,13.70
2018-08-17T03:56:42.194Z,14.27
2018-08-17T03:59:10.858Z,14.40
2018-08-17T04:01:39.509Z,14.60
2018-08-17T04:04:08.314Z,15.63
2018-08-17T04:06:36.943Z,16.53
2018-08-17T04:09:07.360Z,15.53
2018-08-17T04:11:36.014Z,16.57
2018-08-17T04:14:04.673Z,16.03
2018-08-17T04:16:33.240Z,15.90
2018-08-17T04:19:01.823Z,15.43
2018-08-17T04:21:31.380Z,14.87
2018-08-17T04:24:00.008Z,14.73
2018-08-17T04:26:28.644Z,14.30
2018-08-17T04:28:57.278Z,13.97
2018-08-17T04:31:25.890Z,14.13
2018-08-17T04:33:54.524Z,14.20
2018-08-17T04:36:23.146Z,14.50
2018-08-17T04:38:51.794Z,14.60
2018-08-17T04:41:20.393Z,14.70
2018-08-17T04:43:48.997Z,13.53
2018-08-17T04:46:17.621Z,13.87
2018-08-17T04:48:46.223Z,13.77
2018-08-17T04:51:14.825Z,15.00
2018-08-17T04:53:43.492Z,13.37
2018-08-17T04:56:12.077Z,15.40
2018-08-17T04:58:40.771Z,15.53
2018-08-17T05:01:09.519Z,14.40
2018-08-17T05:03:38.110Z,13.77
2018-08-17T05:06:06.716Z,14.63
2018-08-17T05:08:35.345Z,13.80
2018-08-17T05:11:03.990Z,14.57
2018-08-17T05:13:32.728Z,14.17
2018-08-17T05:16:01.366Z,12.27
2018-08-17T05:18:30.014Z,12.50
2018-08-17T05:20:58.681Z,12.27
2018-08-17T05:23:27.379Z,11.93
2018-08-17T05:25:56.079Z,11.27
2018-08-17T05:28:24.682Z,11.13
2018-08-17T05:30:53.379Z,11.50
2018-08-17T05:33:22.058Z,10.30
2018-08-17T05:35:50.779Z,11.40
2018-08-17T05:38:19.465Z,11.87
2018-08-17T05:40:48.218Z,11.67
2018-08-17T05:43:17.241Z,11.20
2018-08-17T05:45:45.976Z,12.30
2018-08-17T05:48:14.898Z,12.47
2018-08-17T05:50:43.591Z,12.60
2018-08-17T05:53:12.403Z,13.20
2018-08-17T05:55:41.096Z,14.10
2018-08-17T05:58:09.838Z,13.83
2018-08-17T06:00:38.550Z,14.10
2018-08-17T06:03:07.282Z,14.80
2018-08-17T06:05:35.968Z,14.30
2018-08-17T06:08:04.647Z,14.63
2018-08-17T06:10:33.311Z,14.83
2018-08-17T06:13:03.046Z,15.37
2018-08-17T06:15:31.713Z,14.07
2018-08-17T06:18:00.501Z,14.73
2018-08-17T06:20:29.161Z,13.70
2018-08-17T06:22:57.864Z,13.60
2018-08-17T06:25:26.973Z,14.23
2018-08-17T06:27:55.784Z,13.00
2018-08-17T06:30:24.540Z,12.40
2018-08-17T06:32:53.347Z,11.90
2018-08-17T06:35:22.226Z,11.90
2018-08-17T06:37:51.125Z,12.43
2018-08-17T06:40:19.850Z,12.57
2018-08-17T06:42:48.628Z,11.03
2018-08-17T06:45:17.363Z,11.13
2018-08-17T06:47:46.181Z,11.80
2018-08-17T06:50:14.912Z,12.07
2018-08-17T06:52:43.949Z,12.80
2018-08-17T06:55:14.359Z,12.50
2018-08-17T06:57:43.018Z,13.07
2018-08-17T07:00:15.008Z,13.37
2018-08-17T07:02:44.698Z,12.40
2018-08-17T07:05:13.590Z,11.23
2018-08-17T07:07:42.450Z,11.43
2018-08-17T07:10:12.555Z,10.47
2018-08-17T07:12:41.959Z,11.00
2018-08-17T07:15:12.579Z,9.63
2018-08-17T07:17:42.023Z,11.03
2018-08-17T07:20:12.435Z,9.60
2018-08-17T07:22:41.407Z,9.70
2018-08-17T07:25:10.261Z,11.20
2018-08-17T07:27:39.347Z,10.70
2018-08-17T07:30:08.959Z,10.67
2018-08-17T07:32:37.663Z,10.93
2018-08-17T07:35:08.076Z,11.17
2018-08-17T07:37:36.882Z,11.57
2018-08-17T07:40:05.701Z,12.17
2018-08-17T07:42:34.405Z,12.60
2018-08-17T07:45:03.159Z,13.40
2018-08-17T07:47:31.815Z,12.30
2018-08-17T07:50:00.656Z,13.20
2018-08-17T07:52:29.345Z,14.20
2018-08-17T07:54:58.043Z,13.97
2018-08-17T07:57:26.711Z,13.97
2018-08-17T07:59:55.304Z,14.73
2018-08-17T08:02:23.955Z,13.63
2018-08-17T08:04:52.751Z,14.60
2018-08-17T08:07:21.614Z,14.40
2018-08-17T08:09:50.201Z,13.80
2018-08-17T08:12:18.846Z,14.57
2018-08-17T08:14:47.548Z,13.90
2018-08-17T08:17:16.146Z,14.83
2018-08-17T08:19:44.838Z,14.70
2018-08-17T08:22:13.489Z,14.73
2018-08-17T08:24:42.099Z,12.90
2018-08-17T08:27:10.788Z,12.40
2018-08-17T08:29:39.476Z,12.07
2018-08-17T08:32:08.131Z,11.13
2018-08-17T08:34:37.353Z,11.80
2018-08-17T08:37:06.621Z,11.33
2018-08-17T08:39:35.222Z,11.20
2018-08-17T08:42:04.070Z,11.90
2018-08-17T08:44:32.682Z,11.77
2018-08-17T08:47:01.342Z,11.37
2018-08-17T08:49:29.987Z,10.60
2018-08-17T08:51:58.644Z,11.50
2018-08-17T08:54:27.266Z,11.83
2018-08-17T08:56:56.138Z,9.40
2018-08-17T08:59:24.818Z,10.57
2018-08-17T09:01:53.497Z,12.70
2018-08-17T09:04:22.116Z,12.43
2018-08-17T09:06:50.784Z,9.97
2018-08-17T09:09:19.531Z,11.43
2018-08-17T09:11:48.159Z,9.30
2018-08-17T09:14:16.822Z,7.57
2018-08-17T09:16:45.643Z,8.47
2018-08-17T09:19:14.318Z,7.43
2018-08-17T09:21:43.002Z,7.03
2018-08-17T09:24:11.635Z,5.60
2018-08-17T09:26:40.327Z,5.37
2018-08-17T09:29:09.148Z,5.60
2018-08-17T09:31:37.723Z,6.70
2018-08-17T09:34:06.379Z,6.87
2018-08-17T09:36:35.076Z,7.40
2018-08-17T09:39:04.480Z,6.30
2018-08-17T09:41:33.143Z,5.93
2018-08-17T09:44:01.898Z,4.47
2018-08-17T09:46:30.537Z,4.23
2018-08-17T09:48:59.158Z,4.97
2018-08-17T09:51:27.879Z,4.30
2018-08-17T09:53:56.511Z,3.17
2018-08-17T09:56:25.134Z,3.70
2018-08-17T09:58:53.798Z,3.13
2018-08-17T10:01:27.849Z,3.53
2018-08-17T10:04:01.792Z,3.77
2018-08-17T10:06:36.265Z,3.20
2018-08-17T10:09:11.227Z,3.00
2018-08-17T10:11:39.941Z,2.57
2018-08-17T10:14:09.030Z,2.83
2018-08-17T10:16:37.722Z,2.80
2018-08-17T10:19:06.444Z,2.90
2018-08-17T10:21:39.619Z,2.83
2018-08-17T10:24:08.432Z,3.50
2018-08-17T10:26:37.306Z,3.40
2018-08-17T10:29:06.112Z,3.20
2018-08-17T10:31:34.831Z,2.93
2018-08-17T10:34:03.575Z,2.77
2018-08-17T10:36:32.342Z,2.93
2018-08-17T10:39:01.922Z,2.73
2018-08-17T10:41:30.798Z,2.47
2018-08-17T10:43:59.499Z,2.97
2018-08-17T10:46:28.660Z,2.53
2018-08-17T10:48:59.082Z,2.83
2018-08-17T10:51:28.695Z,2.70
2018-08-17T10:53:57.543Z,2.70
2018-08-17T10:56:26.602Z,2.80
2018-08-17T10:58:55.258Z,2.90
2018-08-17T11:01:23.945Z,2.50
2018-08-17T11:03:53.222Z,2.70
2018-08-17T11:06:21.998Z,2.63
2018-08-17T11:08:51.061Z,2.73
2018-08-17T11:11:19.977Z,2.70
2018-08-17T11:13:49.453Z,2.80
2018-08-17T11:16:18.411Z,2.33
2018-08-17T11:18:47.132Z,2.77
2018-08-17T11:21:15.860Z,2.70
2018-08-17T11:23:44.549Z,2.40
2018-08-17T11:26:13.117Z,2.43
2018-08-17T11:28:41.918Z,2.20
2018-08-17T11:31:10.679Z,2.20
2018-08-17T11:33:39.407Z,1.90
2018-08-17T11:36:08.083Z,2.37
2018-08-17T11:38:36.803Z,2.60
2018-08-17T11:41:08.912Z,2.33
2018-08-17T11:43:37.558Z,2.67
2018-08-17T11:46:07.239Z,2.53
2018-08-17T11:48:37.756Z,2.23
2018-08-17T11:51:06.438Z,2.00
2018-08-17T11:53:35.184Z,2.30
2018-08-17T11:56:04.128Z,2.60
2018-08-17T11:58:32.778Z,2.40
2018-08-17T12:01:01.708Z,2.00
2018-08-17T12:03:30.342Z,2.50
2018-08-17T12:05:59.060Z,2.40
2018-08-17T12:08:27.857Z,3.37
2018-08-17T12:11:03.221Z,2.20
2018-08-17T12:13:31.997Z,2.40
2018-08-17T12:16:00.695Z,2.30
2018-08-17T12:18:29.317Z,2.47
2018-08-17T12:20:57.983Z,2.57
2018-08-17T12:23:26.607Z,2.43
2018-08-17T12:25:55.745Z,3.07
2018-08-17T12:28:25.202Z,2.23
2018-08-17T12:30:53.836Z,2.63
2018-08-17T12:33:22.509Z,2.70
2018-08-17T12:35:51.130Z,2.50
2018-08-17T12:38:19.869Z,2.00
2018-08-17T12:40:50.830Z,2.20
2018-08-17T12:43:24.280Z,2.63
2018-08-17T12:45:53.420Z,2.47
2018-08-17T12:48:22.046Z,2.70
2018-08-17T12:50:50.632Z,2.37
2018-08-17T12:53:19.425Z,2.37
2018-08-17T12:55:48.528Z,2.70
2018-08-17T12:58:17.197Z,2.47
2018-08-17T13:00:45.832Z,2.53
2018-08-17T13:03:15.145Z,2.70
2018-08-17T13:05:44.089Z,2.60
2018-08-17T13:08:12.936Z,2.40
2018-08-17T13:10:41.705Z,2.10
2018-08-17T13:13:11.170Z,2.30
2018-08-17T13:15:49.044Z,2.60
2018-08-17T13:18:24.643Z,2.80
2018-08-17T13:20:53.409Z,2.43
2018-08-17T13:23:22.304Z,2.73
2018-08-17T13:25:51.122Z,2.50
2018-08-17T13:28:19.702Z,2.73
2018-08-17T13:30:48.432Z,2.87
2018-08-17T13:33:16.976Z,2.70
2018-08-17T13:35:45.627Z,2.57
2018-08-17T13:38:14.292Z,2.30
2018-08-17T13:40:43.379Z,2.50
2018-08-17T13:43:12.012Z,2.93
2018-08-17T13:45:40.648Z,2.90
2018-08-17T13:48:09.266Z,3.00
2018-08-17T13:50:37.899Z,3.00
2018-08-17T13:53:06.714Z,3.30
2018-08-17T13:55:35.333Z,2.77
2018-08-17T13:58:04.034Z,2.80
2018-08-17T14:00:32.782Z,3.50
2018-08-17T14:03:01.393Z,3.30
2018-08-17T14:05:30.034Z,3.07
2018-08-17T14:08:01.806Z,3.10
2018-08-17T14:10:30.900Z,3.83
2018-08-17T14:12:59.784Z,3.60
2018-08-17T14:15:29.927Z,3.63
2018-08-17T14:17:58.629Z,4.30
2018-08-17T14:20:27.467Z,3.97
2018-08-17T14:22:56.052Z,4.30
2018-08-17T14:25:24.782Z,3.77
2018-08-17T14:27:55.531Z,3.87
2018-08-17T14:30:24.325Z,3.87
2018-08-17T14:32:56.421Z,4.07
2018-08-17T14:35:25.764Z,3.40
2018-08-17T14:37:54.509Z,4.00
2018-08-17T14:40:27.026Z,4.20
2018-08-17T14:42:55.752Z,4.50
2018-08-17T14:45:24.436Z,4.40
2018-08-17T14:47:53.108Z,4.60
2018-08-17T14:50:23.806Z,4.20
2018-08-17T14:52:52.544Z,4.40
2018-08-17T14:55:21.320Z,4.23
2018-08-17T14:57:50.112Z,4.60
2018-08-17T15:00:18.750Z,3.90
2018-08-17T15:02:47.359Z,3.23
2018-08-17T15:05:16.252Z,3.73
2018-08-17T15:07:44.951Z,3.40
2018-08-17T15:10:14.408Z,3.70
2018-08-17T15:12:43.856Z,3.40
2018-08-17T15:15:13.096Z,3.10
2018-08-17T15:17:41.752Z,3.40
2018-08-17T15:20:11.927Z,3.37
2018-08-17T15:22:40.661Z,3.20
2018-08-17T15:25:09.380Z,3.00
2018-08-17T15:27:38.074Z,3.10
2018-08-17T15:30:08.489Z,3.30
2018-08-17T15:32:37.209Z,3.67
2018-08-17T15:35:06.315Z,3.90
2018-08-17T15:37:35.015Z,4.50
2018-08-17T15:40:04.267Z,4.17
2018-08-17T15:42:33.658Z,4.40
2018-08-17T15:45:02.385Z,4.03
2018-08-17T15:47:34.060Z,5.00
2018-08-17T15:50:12.337Z,4.20
2018-08-17T15:52:41.168Z,3.83
2018-08-17T15:55:09.932Z,4.20
2018-08-17T15:57:42.973Z,4.30
2018-08-17T16:00:14.874Z,4.00
2018-08-17T16:02:43.625Z,5.03
2018-08-17T16:05:13.235Z,4.97
2018-08-17T16:07:41.995Z,4.30
2018-08-17T16:10:13.052Z,4.93
2018-08-17T16:12:41.800Z,4.47
2018-08-17T16:15:11.371Z,4.43
2018-08-17T16:17:40.199Z,4.27
2018-08-17T16:20:10.665Z,4.13
2018-08-17T16:22:39.501Z,4.20
2018-08-17T16:25:09.297Z,4.20
2018-08-17T16:27:38.120Z,4.03
2018-08-17T16:30:08.133Z,4.07
2018-08-17T16:32:36.772Z,4.10
2018-08-17T16:35:05.674Z,3.20
2018-08-17T16:37:34.463Z,3.20
2018-08-17T16:40:03.171Z,2.73
2018-08-17T16:42:36.066Z,2.80
2018-08-17T16:45:08.280Z,2.97
2018-08-17T16:47:37.242Z,2.90
2018-08-17T16:50:07.183Z,2.70
2018-08-17T16:52:35.988Z,2.80
2018-08-17T16:55:04.833Z,2.60
2018-08-17T16:57:33.543Z,2.60
2018-08-17T17:00:02.324Z,2.77
2018-08-17T17:02:31.129Z,2.50
2018-08-17T17:04:59.995Z,2.33
2018-08-17T17:07:31.563Z,2.37
2018-08-17T17:10:00.732Z,2.30
2018-08-17T17:12:29.531Z,2.70
2018-08-17T17:15:07.680Z,2.37
2018-08-17T17:17:36.350Z,2.23
2018-08-17T17:20:06.349Z,2.50
2018-08-17T17:22:35.039Z,2.10
2018-08-17T17:25:09.908Z,2.60
2018-08-17T17:27:38.562Z,2.63
2018-08-17T17:30:07.407Z,2.37
2018-08-17T17:32:35.991Z,2.27
2018-08-17T17:35:04.805Z,2.80
2018-08-17T17:37:33.433Z,2.63
2018-08-17T17:40:02.106Z,2.23
2018-08-17T17:42:30.712Z,2.03
2018-08-17T17:44:59.333Z,2.03
2018-08-17T17:47:28.055Z,1.70
2018-08-17T17:49:56.781Z,1.80
2018-08-17T17:52:25.425Z,1.73
2018-08-17T17:54:54.050Z,1.83
2018-08-17T17:57:22.649Z,1.87
2018-08-17T17:59:56.374Z,1.87
2018-08-17T18:02:25.676Z,1.63
2018-08-17T18:04:54.270Z,1.83
2018-08-17T18:07:23.194Z,1.83
2018-08-17T18:09:51.770Z,1.90
2018-08-17T18:12:20.355Z,1.80
2018-08-17T18:14:49.050Z,1.97
2018-08-17T18:17:17.836Z,1.93
2018-08-17T18:19:46.663Z,2.20
2018-08-17T18:22:20.771Z,1.93
2018-08-17T18:24:49.466Z,1.80
2018-08-17T18:27:18.146Z,1.90
2018-08-17T18:29:46.813Z,1.67
2018-08-17T18:32:15.641Z,1.67
2018-08-17T18:34:44.429Z,2.03
2018-08-17T18:37:13.164Z,2.10
2018-08-17T18:39:41.904Z,2.80
2018-08-17T18:42:11.062Z,4.07
2018-08-17T18:44:39.858Z,2.17
2018-08-17T18:47:08.848Z,1.80
2018-08-17T18:49:37.560Z,1.70
2018-08-17T18:52:06.368Z,2.17
2018-08-17T18:54:35.134Z,1.93
2018-08-17T18:57:03.797Z,1.83
2018-08-17T18:59:32.563Z,1.80
2018-08-17T19:02:01.828Z,1.70
2018-08-17T19:04:30.491Z,1.90
2018-08-17T19:06:59.359Z,1.90
2018-08-17T19:09:28.305Z,1.90
2018-08-17T19:11:57.018Z,1.90
2018-08-17T19:14:25.859Z,2.37
2018-08-17T19:16:55.048Z,2.10
2018-08-17T19:19:23.919Z,2.27
2018-08-17T19:21:52.582Z,1.90
2018-08-17T19:24:21.423Z,2.03
2018-08-17T19:26:50.031Z,2.60
2018-08-17T19:29:18.925Z,2.17
2018-08-17T19:31:55.594Z,2.33
2018-08-17T19:34:27.780Z,2.47
2018-08-17T19:36:56.394Z,3.00
2018-08-17T19:39:33.986Z,3.00
2018-08-17T19:42:03.109Z,3.00
2018-08-17T19:44:31.840Z,3.17
2018-08-17T19:47:00.473Z,3.20
2018-08-17T19:49:29.151Z,5.20
2018-08-17T19:51:57.767Z,7.43
2018-08-17T19:54:26.579Z,7.93
2018-08-17T19:56:55.342Z,3.27
2018-08-17T19:59:24.206Z,3.77
2018-08-17T20:01:52.938Z,3.83
2018-08-17T20:04:21.638Z,3.20
2018-08-17T20:06:50.271Z,3.20
2018-08-17T20:09:19.000Z,3.10
2018-08-17T20:11:47.684Z,2.20
2018-08-17T20:14:16.271Z,2.57
2018-08-17T20:16:44.918Z,2.73
2018-08-17T20:19:13.618Z,9.33
2018-08-17T20:21:42.273Z,6.10
2018-08-17T20:24:10.971Z,4.63
2018-08-17T20:26:40.012Z,4.83
2018-08-17T20:29:08.422Z,4.53
2018-08-17T20:31:43.449Z,6.73
2018-08-17T20:34:12.095Z,5.67
2018-08-17T20:36:40.916Z,8.17
2018-08-17T20:39:13.416Z,8.47
2018-08-17T20:41:42.070Z,5.60
2018-08-17T20:44:10.723Z,3.50
2018-08-17T20:46:39.313Z,4.10
2018-08-17T20:49:07.944Z,3.53
2018-08-17T20:51:43.235Z,3.40
2018-08-17T20:54:11.855Z,3.63
2018-08-17T20:56:40.465Z,3.90
2018-08-17T20:59:09.092Z,3.97
2018-08-17T21:01:37.701Z,3.83
2018-08-17T21:04:06.378Z,3.80
2018-08-17T21:06:35.840Z,3.90
2018-08-17T21:09:06.334Z,3.80
2018-08-17T21:11:35.076Z,4.00
2018-08-17T21:14:03.632Z,3.70
2018-08-17T21:16:32.238Z,4.17
2018-08-17T21:19:00.853Z,3.60
2018-08-17T21:21:29.512Z,3.60
2018-08-17T21:23:58.105Z,3.67
2018-08-17T21:26:27.117Z,4.00
2018-08-17T21:28:55.847Z,4.07
2018-08-17T21:31:24.446Z,4.67
2018-08-17T21:33:53.078Z,5.00
2018-08-17T21:36:21.654Z,4.60
2018-08-17T21:39:04.184Z,4.50
2018-08-17T21:41:32.895Z,5.57
2018-08-17T21:44:01.395Z,5.40
2018-08-17T21:46:29.987Z,6.07
2018-08-17T21:48:58.594Z,6.47
2018-08-17T21:51:31.389Z,6.30
2018-08-17T21:54:00.822Z,6.20
2018-08-17T21:56:29.434Z,6.70
2018-08-17T21:58:58.228Z,6.67
2018-08-17T22:01:26.902Z,7.20
2018-08-17T22:03:55.573Z,7.37
2018-08-17T22:06:24.141Z,7.17
2018-08-17T22:08:52.767Z,7.70
2018-08-17T22:11:33.868Z,9.50
2018-08-17T22:14:02.494Z,12.90
2018-08-17T22:16:31.103Z,11.17
2018-08-17T22:18:59.814Z,7.60
2018-08-17T22:21:28.331Z,6.43
2018-08-17T22:23:56.951Z,6.37
2018-08-17T22:26:25.877Z,6.30
2018-08-17T22:28:54.894Z,5.73
2018-08-17T22:31:35.608Z,5.60
2018-08-17T22:34:04.394Z,7.23
2018-08-17T22:36:32.994Z,8.10
2018-08-17T22:39:01.621Z,7.83
2018-08-17T22:41:30.197Z,8.20
2018-08-17T22:43:59.530Z,11.10
2018-08-17T22:46:28.141Z,11.93
2018-08-17T22:48:56.782Z,12.60
2018-08-17T22:51:25.273Z,11.03
2018-08-17T22:53:53.877Z,11.73
2018-08-17T22:56:22.479Z,13.90
2018-08-17T22:58:51.062Z,15.20
2018-08-17T23:01:20.854Z,16.30
2018-08-17T23:03:53.760Z,16.57
2018-08-17T23:06:23.688Z,14.13
2018-08-17T23:08:52.378Z,11.80
2018-08-17T23:11:28.498Z,8.90
2018-08-17T23:13:59.395Z,7.50
2018-08-17T23:16:27.972Z,8.10
2018-08-17T23:18:56.544Z,10.33
2018-08-17T23:21:25.170Z,12.30
2018-08-17T23:23:53.688Z,16.97
2018-08-17T23:26:22.298Z,22.17
2018-08-17T23:28:51.554Z,24.07
2018-08-17T23:31:20.144Z,24.17
2018-08-17T23:33:48.797Z,22.47
2018-08-17T23:36:17.407Z,22.70
2018-08-17T23:38:46.017Z,19.80
2018-08-17T23:41:14.616Z,16.00
2018-08-17T23:43:43.158Z,12.80
2018-08-17T23:46:11.767Z,11.13
2018-08-17T23:48:40.433Z,11.70
2018-08-17T23:51:09.084Z,12.17
2018-08-17T23:53:37.683Z,18.57
2018-08-17T23:56:06.343Z,16.20
2018-08-17T23:58:34.953Z,15.93
